Ellisville, MS (39437)

10:32 AM CDT on April 29, 2017 (GMT -0500)
N5PA | | Change Station

Elev 271 ft 31.62 °N, 89.23 °W | Updated 3 seconds ago

Overcast
Overcast
80.6 °F
Feels Like 84 °F
N
4.0
Wind Variable Wind from SE
Gusts 15.0 mph

Today
High -- | Low -- °F
--% Chance of Precip.
Yesterday
High -- | Low -- °F
Precip. -- in
Pressure 29.98 in
Visibility 10.0 miles
Clouds Scattered Clouds 1900 ft
Mostly Cloudy 2700 ft
Overcast 3200 ft
Heat Index 84 °F
Dew Point 71 °F
Humidity 73%
Rainfall 0.00 in
Snow Depth Not available.
6:13 AM 7:35 PM
Waxing Crescent, 14% visible
METAR KPIB 291515Z AUTO 16018G21KT 10SM SCT019 BKN027 OVC032 27/22 A2998 RMK AO1
Pressure 29.98 in
Visibility 10.0 miles
Clouds Scattered Clouds 1900 ft
Mostly Cloudy 2700 ft
Overcast 3200 ft
Heat Index 84 °F
Dew Point 71 °F
Humidity 73%
Rainfall 0.00 in
Snow Depth Not available.
6:13 AM 7:35 PM
Waxing Crescent, 14% visible
METAR KPIB 291515Z AUTO 16018G21KT 10SM SCT019 BKN027 OVC032 27/22 A2998 RMK AO1

Get Severe Weather Alerts

Thanks for signing up!

Be on the lookout for a verification email in your inbox.

You'll start receiving the daily forecast at 8 AM.

×

10-Day Weather Forecast

Almanac

Astronomy

Apr. 29, 2017 Rise Set
Actual Time
Civil Twilight
Nautical Twilight
Astronomical Twilight
Moon
Length of Visible Light
Length of Day
Tomorrow will be .
, % of the Moon is Illuminated

Today's Extremes

State Highs State Lows

Community

WunderPhotos

WunderBlog® & News

Nearby

Air Quality

  Air Quality AQ Index Pollutant
Not available.

Snow Depth

Station Depth Elevation

Earthquake Activity

City Distance Mag. Time & Date
Minimum magnitude displayed is 2.5.

Coastal Water Temperatures

Place Temperature

Stations

Nearby Weather Stations

Station Location Temp. Windchill Dew Point Humidity Wind Precip. Elev Updated Type
                   

Watches & Warnings

There are currently no watches in effect.